Gilman, IL (60938)

5:21 PM CDT on September 01, 2015 (GMT -0500)
FARM 4 MILES N.E. OF TOWN | | Change Station
CLOSE
Current Station
Personal Weather Station
Location: PIPER CITY, IL
Elevation: 668 ft
Nearby Weather Stations

Elev 668 ft 40.81 °N, 88.16 °W | Updated 9 minutes ago

Clear
Clear
84.8 °F
Feels Like 94 °F
N
7.0
Wind Variable Wind from SSW

Today
High -- | Low -- °F
--% Chance of Precip.
Yesterday
High -- | Low -- °F
Precip. -- in
6:18 AM 7:24 PM
Waning Gibbous, 86% visible
Pressure 30.04 in
Visibility 10.0 miles
Clouds Clear
Heat Index 94 °F
Dew Point 76 °F
Humidity 75%
Rainfall 0.72 in
Snow Depth Not available.
UV 3 out of 12
Pollen 10.40 out of 12
Air Quality Not available.
Flu Activity Not available.
METAR KIKK 012155Z AUTO 19008KT 10SM CLR 30/23 A3004 RMK AO2 T03020231
Pressure 30.04 in
Visibility 10.0 miles
Clouds Clear
Heat Index 94 °F
Dew Point 76 °F
Humidity 75%
Rainfall 0.72 in
Snow Depth Not available.
UV 3 out of 12
Pollen 10.40 out of 12
Air Quality Not available.
Flu Activity Not available.
METAR KIKK 012155Z AUTO 19008KT 10SM CLR 30/23 A3004 RMK AO2 T03020231

10-Day Weather Forecast

×

Almanac

Astronomy

Sep. 01, 2015 Rise Set
Actual Time
Civil Twilight
Nautical Twilight
Astronomical Twilight
Moon
Length of Visible Light
Length of Day
Tomorrow will be .
, % of the Moon is Illuminated

Today's Extremes

State Highs State Lows

Community

WunderPhotos

Upload Photos

1,851,632 photos uploaded!

WunderBlogs® & News

Nearby

Air Quality

  Air Quality AQ Index Pollutant
Not available.

Snow Depth

Station Depth Elevation

Earthquake Activity

City Distance Mag. Time & Date
Minimum magnitude displayed is 2.5.

Coastal Water Temperatures

Place Temperature

Stations

Nearby Weather Stations

Station Location Temp. Windchill Dew Point Humidity Wind Precip. Elev Updated Type